Time,TemperatureF,DewpointF,PressureIn,WindDirection,WindDirectionDegrees,WindSpeedMPH,WindSpeedGustMPH,Humidity,HourlyPrecipIn,Conditions,Clouds,dailyrainin,SoftwareType,DateUTC
2013-02-21 00:11:00,-2.0,-4.0,-100.00,SSE,155,2.0,4.0,87,0.00,,,0.00,,2013-02-21 06:11:00,
2013-02-21 00:21:00,-2.0,-4.0,-100.00,SSE,155,2.0,4.0,87,0.00,,,0.00,,2013-02-21 06:21:00,
2013-02-21 00:31:00,-1.0,-4.0,-100.00,ESE,120,4.0,5.0,87,0.00,,,0.00,,2013-02-21 06:31:00,
2013-02-21 00:41:00,-1.0,-4.0,-100.00,ESE,120,4.0,5.0,87,0.00,,,0.00,,2013-02-21 06:41:00,
2013-02-21 00:51:00,-1.0,-4.0,-100.00,SE,140,2.0,4.0,87,0.00,,,0.00,,2013-02-21 06:51:00,
2013-02-21 01:01:00,-2.0,-6.0,-100.00,SE,145,2.0,2.0,87,0.00,,,0.00,,2013-02-21 07:01:00,
2013-02-21 01:11:00,-2.0,-6.0,-100.00,SE,145,2.0,2.0,87,0.00,,,0.00,,2013-02-21 07:11:00,
2013-02-21 01:21:00,-3.0,-6.0,-100.00,SE,135,2.0,3.0,87,0.00,,,0.00,,2013-02-21 07:21:00,
2013-02-21 01:32:00,-3.0,-6.0,-100.00,ESE,115,2.0,2.0,87,0.00,,,0.00,,2013-02-21 07:32:00,
2013-02-21 01:42:00,-4.0,-8.0,-100.00,East,100,2.0,3.0,87,0.00,,,0.00,,2013-02-21 07:42:00,
2013-02-21 01:52:00,-4.0,-8.0,-100.00,East,100,4.0,5.0,87,0.00,,,0.00,,2013-02-21 07:52:00,
2013-02-21 02:01:00,-4.0,-8.0,-100.00,ESE,105,5.0,6.0,87,0.00,,,0.00,,2013-02-21 08:01:00,
2013-02-21 02:11:00,-3.0,-6.0,-100.00,ESE,110,7.0,9.0,87,0.00,,,0.00,,2013-02-21 08:11:00,
2013-02-21 02:21:00,-2.0,-6.0,-100.00,ESE,115,7.0,9.0,87,0.00,,,0.00,,2013-02-21 08:21:00,
2013-02-21 02:32:00,-2.0,-4.0,-100.00,ESE,120,7.0,9.0,87,0.00,,,0.00,,2013-02-21 08:32:00,
2013-02-21 02:42:00,-1.0,-4.0,-100.00,SE,125,6.0,7.0,87,0.00,,,0.00,,2013-02-21 08:42:00,
2013-02-21 02:52:00,-1.0,-4.0,-100.00,SE,130,6.0,7.0,87,0.00,,,0.00,,2013-02-21 08:52:00,
2013-02-21 03:01:00,-1.0,-4.0,-100.00,SE,130,5.0,6.0,87,0.00,,,0.00,,2013-02-21 09:01:00,
2013-02-21 03:11:00,-1.0,-4.0,-100.00,SE,135,6.0,6.0,87,0.00,,,0.00,,2013-02-21 09:11:00,
2013-02-21 03:22:00,-1.0,-4.0,-100.00,SE,125,6.0,6.0,87,0.00,,,0.00,,2013-02-21 09:22:00,
2013-02-21 03:31:00,-1.0,-4.0,-100.00,SE,125,6.0,6.0,87,0.00,,,0.00,,2013-02-21 09:31:00,
2013-02-21 03:41:00,-2.0,-4.0,-100.00,ESE,120,7.0,8.0,87,0.00,,,0.00,,2013-02-21 09:41:00,
2013-02-21 03:51:00,-2.0,-4.0,-100.00,ESE,115,7.0,7.0,87,0.00,,,0.00,,2013-02-21 09:51:00,
2013-02-21 04:01:00,-2.0,-4.0,-100.00,ESE,110,7.0,9.0,87,0.00,,,0.00,,2013-02-21 10:01:00,
2013-02-21 04:11:00,-2.0,-4.0,-100.00,ESE,110,6.0,8.0,87,0.00,,,0.00,,2013-02-21 10:11:00,
2013-02-21 04:21:00,-2.0,-4.0,-100.00,ESE,115,6.0,8.0,87,0.00,,,0.00,,2013-02-21 10:21:00,
2013-02-21 04:31:00,-2.0,-4.0,-100.00,East,95,4.0,7.0,87,0.00,,,0.00,,2013-02-21 10:31:00,
2013-02-21 04:41:00,-2.0,-4.0,-100.00,East,95,5.0,6.0,87,0.00,,,0.00,,2013-02-21 10:41:00,
2013-02-21 04:51:00,-1.0,-4.0,-100.00,East,90,4.0,6.0,87,0.00,,,0.00,,2013-02-21 10:51:00,
2013-02-21 05:01:00,-1.0,-4.0,-100.00,East,90,4.0,5.0,87,0.00,,,0.00,,2013-02-21 11:01:00,
2013-02-21 05:11:00,-2.0,-4.0,-100.00,East,85,5.0,6.0,87,0.00,,,0.00,,2013-02-21 11:11:00,
2013-02-21 05:21:00,-2.0,-6.0,-100.00,East,85,4.0,5.0,87,0.00,,,0.00,,2013-02-21 11:21:00,
2013-02-21 05:31:00,-3.0,-6.0,-100.00,East,80,2.0,4.0,87,0.00,,,0.00,,2013-02-21 11:31:00,
2013-02-21 05:41:00,-3.0,-6.0,-100.00,ENE,65,3.0,4.0,87,0.00,,,0.00,,2013-02-21 11:41:00,
2013-02-21 05:51:00,-4.0,-6.0,-100.00,ENE,70,4.0,4.0,87,0.00,,,0.00,,2013-02-21 11:51:00,
2013-02-21 06:01:00,-5.0,-8.0,-100.00,ENE,65,6.0,6.0,86,0.00,,,0.00,,2013-02-21 12:01:00,
2013-02-21 06:11:00,-6.0,-9.0,-100.00,ENE,65,4.0,6.0,86,0.00,,,0.00,,2013-02-21 12:11:00,
2013-02-21 06:21:00,-6.0,-9.0,-100.00,ENE,70,4.0,4.0,86,0.00,,,0.00,,2013-02-21 12:21:00,
2013-02-21 06:32:00,-6.0,-9.0,-100.00,ENE,60,3.0,4.0,86,0.00,,,0.00,,2013-02-21 12:32:00,
2013-02-21 06:42:00,-6.0,-9.0,-100.00,NE,55,4.0,4.0,86,0.00,,,0.00,,2013-02-21 12:42:00,
2013-02-21 06:52:00,-5.0,-8.0,-100.00,NE,55,4.0,6.0,86,0.00,,,0.00,,2013-02-21 12:52:00,
2013-02-21 07:01:00,-5.0,-8.0,-100.00,NE,55,4.0,5.0,86,0.00,,,0.00,,2013-02-21 13:01:00,
2013-02-21 07:12:00,-5.0,-8.0,-100.00,NE,55,5.0,6.0,86,0.00,,,0.00,,2013-02-21 13:12:00,
2013-02-21 07:22:00,-6.0,-9.0,-100.00,NE,55,7.0,7.0,86,0.00,,,0.00,,2013-02-21 13:22:00,
2013-02-21 07:32:00,-7.0,-9.0,-100.00,ENE,60,7.0,8.0,86,0.00,,,0.00,,2013-02-21 13:32:00,
2013-02-21 07:41:00,-8.0,-11.0,-100.00,ENE,65,7.0,8.0,86,0.00,,,0.00,,2013-02-21 13:41:00,
2013-02-21 07:51:00,-7.0,-11.0,-100.00,ENE,60,6.0,8.0,86,0.00,,,0.00,,2013-02-21 13:51:00,
2013-02-21 08:02:00,-7.0,-9.0,-100.00,ENE,65,6.0,7.0,86,0.00,,,0.00,,2013-02-21 14:02:00,
2013-02-21 08:11:00,-7.0,-9.0,-100.00,ENE,70,7.0,7.0,86,0.00,,,0.00,,2013-02-21 14:11:00,
2013-02-21 08:21:00,-5.0,-9.0,-100.00,East,85,4.0,7.0,86,0.00,,,0.00,,2013-02-21 14:21:00,
2013-02-21 08:32:00,-4.0,-8.0,-100.00,East,80,4.0,4.0,86,0.00,,,0.00,,2013-02-21 14:32:00,
2013-02-21 08:41:00,-4.0,-8.0,-100.00,ENE,75,4.0,4.0,86,0.00,,,0.00,,2013-02-21 14:41:00,
2013-02-21 08:52:00,-2.0,-6.0,-100.00,ESE,110,2.0,4.0,86,0.00,,,0.00,,2013-02-21 14:52:00,
2013-02-21 09:01:00,-2.0,-6.0,-100.00,ESE,110,2.0,4.0,86,0.00,,,0.00,,2013-02-21 15:01:00,
2013-02-21 09:12:00,-2.0,-6.0,-100.00,ESE,110,2.0,4.0,86,0.00,,,0.00,,2013-02-21 15:12:00,
2013-02-21 09:21:00,1.0,-2.0,-100.00,East,95,6.0,7.0,87,0.00,,,0.00,,2013-02-21 15:21:00,
2013-02-21 09:32:00,2.0,-2.0,-100.00,East,100,3.0,7.0,87,0.00,,,0.00,,2013-02-21 15:32:00,
2013-02-21 09:42:00,2.0,-2.0,-100.00,ESE,105,6.0,7.0,87,0.00,,,0.00,,2013-02-21 15:42:00,
2013-02-21 09:52:00,2.0,0.0,-100.00,East,100,4.0,7.0,87,0.00,,,0.00,,2013-02-21 15:52:00,
2013-02-21 10:01:00,3.0,0.0,-100.00,East,100,4.0,7.0,87,0.00,,,0.00,,2013-02-21 16:01:00,
2013-02-21 10:12:00,4.0,1.0,-100.00,East,100,4.0,7.0,87,0.00,,,0.00,,2013-02-21 16:12:00,
2013-02-21 10:21:00,5.0,1.0,-100.00,ESE,110,4.0,6.0,87,0.00,,,0.00,,2013-02-21 16:21:00,
2013-02-21 10:32:00,9.0,7.0,-100.00,East,85,3.0,4.0,89,0.00,,,0.00,,2013-02-21 16:32:00,
2013-02-21 10:42:00,10.0,7.0,-100.00,East,85,3.0,4.0,89,0.00,,,0.00,,2013-02-21 16:42:00,
2013-02-21 10:52:00,10.0,7.0,-100.00,ESE,105,4.0,4.0,90,0.00,,,0.00,,2013-02-21 16:52:00,
2013-02-21 11:01:00,9.0,7.0,-100.00,East,85,4.0,6.0,89,0.00,,,0.00,,2013-02-21 17:01:00,
2013-02-21 11:11:00,10.0,7.0,-100.00,East,85,4.0,6.0,89,0.00,,,0.00,,2013-02-21 17:11:00,
2013-02-21 11:21:00,10.0,7.0,-100.00,East,100,4.0,6.0,89,0.00,,,0.00,,2013-02-21 17:21:00,
2013-02-21 11:32:00,13.0,10.0,-100.00,NE,55,4.0,6.0,91,0.00,,,0.00,,2013-02-21 17:32:00,
2013-02-21 11:42:00,12.0,10.0,-100.00,NE,45,6.0,6.0,91,0.00,,,0.00,,2013-02-21 17:42:00,
2013-02-21 11:52:00,11.0,10.0,-100.00,East,85,6.0,7.0,91,0.00,,,0.00,,2013-02-21 17:52:00,
2013-02-21 12:02:00,11.0,9.0,-100.00,East,80,6.0,7.0,90,0.00,,,0.00,,2013-02-21 18:02:00,
2013-02-21 12:11:00,13.0,10.0,-100.00,East,80,4.0,7.0,90,0.00,,,0.00,,2013-02-21 18:11:00,
2013-02-21 12:22:00,12.0,10.0,-100.00,East,95,6.0,7.0,90,0.00,,,0.00,,2013-02-21 18:22:00,
2013-02-21 12:31:00,12.0,10.0,-100.00,ESE,115,7.0,9.0,90,0.00,,,0.00,,2013-02-21 18:31:00,
2013-02-21 12:42:00,13.0,10.0,-100.00,East,100,7.0,9.0,89,0.00,,,0.00,,2013-02-21 18:42:00,
2013-02-21 12:51:00,15.0,12.0,-100.00,ESE,110,9.0,11.0,89,0.00,,,0.00,,2013-02-21 18:51:00,
2013-02-21 13:01:00,15.0,12.0,-100.00,ESE,110,9.0,11.0,89,0.00,,,0.00,,2013-02-21 19:01:00,
2013-02-21 13:12:00,15.0,12.0,-100.00,ESE,110,9.0,11.0,89,0.00,,,0.00,,2013-02-21 19:12:00,
2013-02-21 13:21:00,16.0,14.0,-100.00,SE,140,11.0,13.0,88,0.00,,,0.00,,2013-02-21 19:21:00,
2013-02-21 13:32:00,16.0,12.0,-100.00,SE,145,10.0,12.0,88,0.00,,,0.00,,2013-02-21 19:32:00,
2013-02-21 13:42:00,17.0,14.0,-100.00,SE,145,8.0,11.0,89,0.00,,,0.00,,2013-02-21 19:42:00,
2013-02-21 13:51:00,17.0,14.0,-100.00,SE,145,9.0,12.0,89,0.00,,,0.00,,2013-02-21 19:51:00,
2013-02-21 14:01:00,17.0,14.0,-100.00,SE,140,9.0,12.0,89,0.00,,,0.00,,2013-02-21 20:01:00,
2013-02-21 14:11:00,17.0,14.0,-100.00,SE,140,7.0,9.0,89,0.00,,,0.00,,2013-02-21 20:11:00,
2013-02-21 14:21:00,17.0,14.0,-100.00,SSE,150,9.0,11.0,89,0.00,,,0.00,,2013-02-21 20:21:00,
2013-02-21 14:32:00,18.0,16.0,-100.00,SSE,155,7.0,11.0,89,0.00,,,0.00,,2013-02-21 20:32:00,
2013-02-21 14:41:00,17.0,16.0,-100.00,SSE,150,9.0,11.0,89,0.00,,,0.00,,2013-02-21 20:41:00,
2013-02-21 14:52:00,17.0,16.0,-100.00,SSE,150,9.0,11.0,89,0.00,,,0.00,,2013-02-21 20:52:00,
2013-02-21 15:02:00,17.0,14.0,-100.00,ESE,120,7.0,9.0,88,0.00,,,0.00,,2013-02-21 21:02:00,
2013-02-21 15:11:00,17.0,14.0,-100.00,SE,135,6.0,7.0,88,0.00,,,0.00,,2013-02-21 21:11:00,
2013-02-21 15:21:00,18.0,16.0,-100.00,SE,130,6.0,7.0,88,0.00,,,0.00,,2013-02-21 21:21:00,
2013-02-21 15:31:00,18.0,16.0,-100.00,SE,135,4.0,7.0,88,0.00,,,0.00,,2013-02-21 21:31:00,
2013-02-21 15:42:00,18.0,16.0,-100.00,SE,135,4.0,6.0,87,0.00,,,0.00,,2013-02-21 21:42:00,
2013-02-21 15:51:00,19.0,16.0,-100.00,SE,135,3.0,5.0,88,0.00,,,0.00,,2013-02-21 21:51:00,
2013-02-21 16:01:00,18.0,14.0,-100.00,ESE,105,4.0,6.0,87,0.00,,,0.00,,2013-02-21 22:01:00,
2013-02-21 16:11:00,18.0,14.0,-100.00,ESE,110,4.0,6.0,87,0.00,,,0.00,,2013-02-21 22:11:00,
2013-02-21 16:21:00,18.0,16.0,-100.00,ENE,65,7.0,9.0,90,0.00,,,0.00,,2013-02-21 22:21:00,
2013-02-21 16:31:00,17.0,14.0,-100.00,ENE,65,6.0,7.0,91,0.00,,,0.00,,2013-02-21 22:31:00,
2013-02-21 16:42:00,17.0,14.0,-100.00,ENE,60,6.0,7.0,91,0.00,,,0.00,,2013-02-21 22:42:00,
2013-02-21 16:52:00,16.0,14.0,-100.00,NE,55,6.0,6.0,92,0.00,,,0.00,,2013-02-21 22:52:00,
2013-02-21 17:01:00,16.0,14.0,-100.00,NE,50,6.0,7.0,92,0.00,,,0.00,,2013-02-21 23:01:00,
2013-02-21 17:11:00,16.0,14.0,-100.00,NE,55,6.0,7.0,92,0.00,,,0.00,,2013-02-21 23:11:00,
2013-02-21 17:21:00,15.0,14.0,-100.00,NE,45,7.0,7.0,92,0.00,,,0.00,,2013-02-21 23:21:00,
2013-02-21 17:31:00,15.0,14.0,-100.00,NE,45,7.0,7.0,92,0.00,,,0.00,,2013-02-21 23:31:00,
2013-02-21 17:41:00,15.0,14.0,-100.00,NE,35,5.0,7.0,92,0.00,,,0.00,,2013-02-21 23:41:00,
2013-02-21 17:52:00,15.0,14.0,-100.00,NE,35,6.0,7.0,92,0.00,,,0.00,,2013-02-21 23:52:00,
2013-02-21 18:01:00,14.0,12.0,-100.00,NE,40,6.0,6.0,92,0.00,,,0.00,,2013-02-22 00:01:00,
2013-02-21 18:11:00,14.0,12.0,-100.00,NNE,30,4.0,6.0,92,0.00,,,0.00,,2013-02-22 00:11:00,
2013-02-21 18:21:00,14.0,12.0,-100.00,NE,35,4.0,6.0,92,0.00,,,0.00,,2013-02-22 00:21:00,
2013-02-21 18:32:00,13.0,12.0,-100.00,NE,35,7.0,7.0,92,0.00,,,0.00,,2013-02-22 00:32:00,
2013-02-21 18:41:00,13.0,10.0,-100.00,NE,50,6.0,7.0,92,0.00,,,0.00,,2013-02-22 00:41:00,
2013-02-21 18:51:00,12.0,10.0,-100.00,NE,40,4.0,6.0,92,0.00,,,0.00,,2013-02-22 00:51:00,
2013-02-21 19:01:00,12.0,10.0,-100.00,NE,45,5.0,6.0,92,0.00,,,0.00,,2013-02-22 01:01:00,
2013-02-21 19:11:00,12.0,10.0,-100.00,NE,45,5.0,5.0,92,0.00,,,0.00,,2013-02-22 01:11:00,
2013-02-21 19:21:00,13.0,10.0,-100.00,NNE,15,3.0,6.0,91,0.00,,,0.00,,2013-02-22 01:21:00,
2013-02-21 19:32:00,13.0,10.0,-100.00,North,5,3.0,4.0,89,0.00,,,0.00,,2013-02-22 01:32:00,
2013-02-21 19:42:00,13.0,10.0,-100.00,North,5,4.0,4.0,89,0.00,,,0.00,,2013-02-22 01:42:00,
2013-02-21 19:51:00,13.0,10.0,-100.00,North,10,4.0,6.0,88,0.00,,,0.00,,2013-02-22 01:51:00,
2013-02-21 20:02:00,12.0,9.0,-100.00,NNW,335,4.0,6.0,87,0.00,,,0.00,,2013-02-22 02:02:00,
2013-02-21 20:11:00,10.0,7.0,-100.00,NNW,335,5.0,5.0,88,0.00,,,0.00,,2013-02-22 02:11:00,
2013-02-21 20:21:00,10.0,7.0,-100.00,North,5,5.0,6.0,88,0.00,,,0.00,,2013-02-22 02:21:00,
2013-02-21 20:31:00,11.0,9.0,-100.00,North,5,5.0,6.0,88,0.00,,,0.00,,2013-02-22 02:31:00,
2013-02-21 20:42:00,11.0,9.0,-100.00,North,5,4.0,6.0,87,0.00,,,0.00,,2013-02-22 02:42:00,
2013-02-21 20:52:00,11.0,9.0,-100.00,North,5,4.0,6.0,87,0.00,,,0.00,,2013-02-22 02:52:00,
2013-02-21 21:01:00,9.0,7.0,-100.00,North,10,6.0,7.0,87,0.00,,,0.00,,2013-02-22 03:01:00,
2013-02-21 21:11:00,10.0,7.0,-100.00,NNE,20,4.0,6.0,87,0.00,,,0.00,,2013-02-22 03:11:00,
2013-02-21 21:21:00,9.0,5.0,-100.00,North,10,2.0,6.0,87,0.00,,,0.00,,2013-02-22 03:21:00,
2013-02-21 21:32:00,8.0,5.0,-100.00,NNE,15,2.0,4.0,87,0.00,,,0.00,,2013-02-22 03:32:00,
2013-02-21 21:42:00,8.0,5.0,-100.00,NNE,15,2.0,4.0,87,0.00,,,0.00,,2013-02-22 03:42:00,
2013-02-21 21:51:00,8.0,5.0,-100.00,North,5,4.0,5.0,88,0.00,,,0.00,,2013-02-22 03:51:00,
2013-02-21 22:01:00,6.0,3.0,-100.00,North,350,4.0,4.0,88,0.00,,,0.00,,2013-02-22 04:01:00,
2013-02-21 22:11:00,6.0,3.0,-100.00,North,350,4.0,4.0,88,0.00,,,0.00,,2013-02-22 04:11:00,
2013-02-21 22:21:00,5.0,3.0,-100.00,North,350,4.0,5.0,88,0.00,,,0.00,,2013-02-22 04:21:00,
2013-02-21 22:32:00,5.0,1.0,-100.00,NNW,345,6.0,6.0,88,0.00,,,0.00,,2013-02-22 04:32:00,
2013-02-21 22:42:00,7.0,3.0,-100.00,North,5,4.0,6.0,88,0.00,,,0.00,,2013-02-22 04:42:00,
2013-02-21 22:51:00,7.0,5.0,-100.00,North,10,5.0,6.0,88,0.00,,,0.00,,2013-02-22 04:51:00,
2013-02-21 23:01:00,7.0,5.0,-100.00,NNE,15,5.0,7.0,87,0.00,,,0.00,,2013-02-22 05:01:00,
2013-02-21 23:12:00,7.0,5.0,-100.00,North,10,5.0,7.0,87,0.00,,,0.00,,2013-02-22 05:12:00,
2013-02-21 23:22:00,7.0,3.0,-100.00,NNE,25,2.0,5.0,87,0.00,,,0.00,,2013-02-22 05:22:00,
2013-02-21 23:32:00,6.0,3.0,-100.00,NNE,25,3.0,4.0,87,0.00,,,0.00,,2013-02-22 05:32:00,
2013-02-21 23:42:00,5.0,1.0,-100.00,NNE,25,3.0,4.0,87,0.00,,,0.00,,2013-02-22 05:42:00,
2013-02-21 23:52:00,5.0,3.0,-100.00,NNE,25,4.0,6.0,88,0.00,,,0.00,,2013-02-22 05:52:00,